sensor_id;sensor_type;location;lat;lon;timestamp;pressure;altitude;pressure_sealevel;temperature
70435;BMP280;57876;47.792;12.960;2022-10-14T00:00:27;97014.84;;;18.62
70435;BMP280;57876;47.792;12.960;2022-10-14T00:02:51;97008.63;;;18.62
70435;BMP280;57876;47.792;12.960;2022-10-14T00:05:16;97007.91;;;18.61
70435;BMP280;57876;47.792;12.960;2022-10-14T00:07:40;97014.09;;;18.62
70435;BMP280;57876;47.792;12.960;2022-10-14T00:10:05;97029.84;;;18.61
70435;BMP280;57876;47.792;12.960;2022-10-14T00:12:31;97029.09;;;18.61
70435;BMP280;57876;47.792;12.960;2022-10-14T00:14:55;97027.09;;;18.61
70435;BMP280;57876;47.792;12.960;2022-10-14T00:17:19;97029.09;;;18.61
70435;BMP280;57876;47.792;12.960;2022-10-14T00:19:44;97035.31;;;18.61
70435;BMP280;57876;47.792;12.960;2022-10-14T00:22:08;97032.56;;;18.61
70435;BMP280;57876;47.792;12.960;2022-10-14T00:24:32;97030.38;;;18.60
70435;BMP280;57876;47.792;12.960;2022-10-14T00:26:57;97037.91;;;18.59
70435;BMP280;57876;47.792;12.960;2022-10-14T00:29:21;97035.19;;;18.59
70435;BMP280;57876;47.792;12.960;2022-10-14T00:31:46;97040.66;;;18.59
70435;BMP280;57876;47.792;12.960;2022-10-14T00:34:10;97043.41;;;18.59
70435;BMP280;57876;47.792;12.960;2022-10-14T00:36:36;97059.09;;;18.59
70435;BMP280;57876;47.792;12.960;2022-10-14T00:39:00;97054.16;;;18.57
70435;BMP280;57876;47.792;12.960;2022-10-14T00:41:30;97088.50;;;18.58
70435;BMP280;57876;47.792;12.960;2022-10-14T00:44:02;97090.53;;;18.58
70435;BMP280;57876;47.792;12.960;2022-10-14T00:46:30;97085.75;;;18.58
70435;BMP280;57876;47.792;12.960;2022-10-14T00:48:56;97076.84;;;18.58
70435;BMP280;57876;47.792;12.960;2022-10-14T00:51:22;97087.06;;;18.57
70435;BMP280;57876;47.792;12.960;2022-10-14T00:53:46;97090.53;;;18.58
70435;BMP280;57876;47.792;12.960;2022-10-14T00:56:12;97084.31;;;18.57
70435;BMP280;57876;47.792;12.960;2022-10-14T00:58:38;97078.81;;;18.57
70435;BMP280;57876;47.792;12.960;2022-10-14T01:01:03;97074.63;;;18.56
70435;BMP280;57876;47.792;12.960;2022-10-14T01:03:27;97077.38;;;18.56
70435;BMP280;57876;47.792;12.960;2022-10-14T01:08:46;97071.91;;;18.56
70435;BMP280;57876;47.792;12.960;2022-10-14T01:11:16;97069.16;;;18.56
70435;BMP280;57876;47.792;12.960;2022-10-14T01:14:15;97061.53;;;18.55
70435;BMP280;57876;47.792;12.960;2022-10-14T01:17:26;97064.28;;;18.55
70435;BMP280;57876;47.792;12.960;2022-10-14T01:22:25;97060.09;;;18.54
70435;BMP280;57876;47.792;12.960;2022-10-14T01:25:18;97069.03;;;18.54
70435;BMP280;57876;47.792;12.960;2022-10-14T01:30:49;97064.81;;;18.53
70435;BMP280;57876;47.792;12.960;2022-10-14T01:33:21;97067.56;;;18.53
70435;BMP280;57876;47.792;12.960;2022-10-14T01:36:27;97075.06;;;18.53
70435;BMP280;57876;47.792;12.960;2022-10-14T01:43:52;97082.56;;;18.52
70435;BMP280;57876;47.792;12.960;2022-10-14T01:46:21;97077.63;;;18.51
70435;BMP280;57876;47.792;12.960;2022-10-14T01:48:49;97073.63;;;18.52
70435;BMP280;57876;47.792;12.960;2022-10-14T01:51:19;97074.88;;;18.51
70435;BMP280;57876;47.792;12.960;2022-10-14T01:53:52;97073.63;;;18.52
70435;BMP280;57876;47.792;12.960;2022-10-14T01:56:18;97071.59;;;18.52
70435;BMP280;57876;47.792;12.960;2022-10-14T01:58:42;97072.13;;;18.51
70435;BMP280;57876;47.792;12.960;2022-10-14T02:01:08;97065.97;;;18.50
70435;BMP280;57876;47.792;12.960;2022-10-14T02:03:44;97063.22;;;18.50
70435;BMP280;57876;47.792;12.960;2022-10-14T02:06:30;97071.59;;;18.52
70435;BMP280;57876;47.792;12.960;2022-10-14T02:09:21;97063.22;;;18.50
70435;BMP280;57876;47.792;12.960;2022-10-14T02:14:43;97080.38;;;18.51
70435;BMP280;57876;47.792;12.960;2022-10-14T02:19:55;97079.69;;;18.50
70435;BMP280;57876;47.792;12.960;2022-10-14T02:22:31;97083.09;;;18.51
70435;BMP280;57876;47.792;12.960;2022-10-14T02:25:01;97075.47;;;18.49
70435;BMP280;57876;47.792;12.960;2022-10-14T02:27:27;97078.22;;;18.49
70435;BMP280;57876;47.792;12.960;2022-10-14T02:29:53;97077.47;;;18.49
70435;BMP280;57876;47.792;12.960;2022-10-14T02:32:21;97080.97;;;18.49
70435;BMP280;57876;47.792;12.960;2022-10-14T02:34:49;97077.47;;;18.49
70435;BMP280;57876;47.792;12.960;2022-10-14T02:37:16;97080.97;;;18.49
70435;BMP280;57876;47.792;12.960;2022-10-14T02:39:46;97074.03;;;18.48
70435;BMP280;57876;47.792;12.960;2022-10-14T02:42:15;97074.75;;;18.49
70435;BMP280;57876;47.792;12.960;2022-10-14T02:44:54;97069.25;;;18.49
70435;BMP280;57876;47.792;12.960;2022-10-14T02:47:19;97071.28;;;18.48
70435;BMP280;57876;47.792;12.960;2022-10-14T02:49:43;97076.78;;;18.48
70435;BMP280;57876;47.792;12.960;2022-10-14T02:52:08;97071.28;;;18.48
70435;BMP280;57876;47.792;12.960;2022-10-14T02:54:32;97079.50;;;18.48
70435;BMP280;57876;47.792;12.960;2022-10-14T02:56:56;97075.31;;;18.47
70435;BMP280;57876;47.792;12.960;2022-10-14T02:59:21;97085.69;;;18.49
70435;BMP280;57876;47.792;12.960;2022-10-14T03:01:45;97082.78;;;18.47
70435;BMP280;57876;47.792;12.960;2022-10-14T03:04:10;97075.31;;;18.47
70435;BMP280;57876;47.792;12.960;2022-10-14T03:06:34;97083.53;;;18.47
70435;BMP280;57876;47.792;12.960;2022-10-14T03:08:58;97074.56;;;18.47
70435;BMP280;57876;47.792;12.960;2022-10-14T03:11:23;97073.28;;;18.48
70435;BMP280;57876;47.792;12.960;2022-10-14T03:13:47;97077.31;;;18.47
70435;BMP280;57876;47.792;12.960;2022-10-14T03:16:11;97071.84;;;18.47
70435;BMP280;57876;47.792;12.960;2022-10-14T03:18:38;97073.28;;;18.48
70435;BMP280;57876;47.792;12.960;2022-10-14T03:21:02;97072.56;;;18.47
70435;BMP280;57876;47.792;12.960;2022-10-14T03:23:27;97069.09;;;18.47
70435;BMP280;57876;47.792;12.960;2022-10-14T03:25:51;97071.13;;;18.46
70435;BMP280;57876;47.792;12.960;2022-10-14T03:28:19;97070.41;;;18.46
70435;BMP280;57876;47.792;12.960;2022-10-14T03:30:43;97066.34;;;18.47
70435;BMP280;57876;47.792;12.960;2022-10-14T03:33:07;97066.97;;;18.45
70435;BMP280;57876;47.792;12.960;2022-10-14T03:35:32;97066.34;;;18.47
70435;BMP280;57876;47.792;12.960;2022-10-14T03:37:58;97054.69;;;18.46
70435;BMP280;57876;47.792;12.960;2022-10-14T03:40:26;97050.53;;;18.45
70435;BMP280;57876;47.792;12.960;2022-10-14T03:42:50;97064.94;;;18.46
70435;BMP280;57876;47.792;12.960;2022-10-14T03:45:14;97056.72;;;18.46
70435;BMP280;57876;47.792;12.960;2022-10-14T03:47:39;97058.75;;;18.45
70435;BMP280;57876;47.792;12.960;2022-10-14T03:50:04;97061.47;;;18.45
70435;BMP280;57876;47.792;12.960;2022-10-14T03:52:28;97062.19;;;18.46
70435;BMP280;57876;47.792;12.960;2022-10-14T03:54:53;97053.97;;;18.46
70435;BMP280;57876;47.792;12.960;2022-10-14T03:57:17;97062.91;;;18.46
70435;BMP280;57876;47.792;12.960;2022-10-14T03:59:42;97058.75;;;18.45
70435;BMP280;57876;47.792;12.960;2022-10-14T04:02:06;97063.47;;;18.45
70435;BMP280;57876;47.792;12.960;2022-10-14T04:04:30;97066.22;;;18.45
70435;BMP280;57876;47.792;12.960;2022-10-14T04:06:55;97075.19;;;18.45
70435;BMP280;57876;47.792;12.960;2022-10-14T04:09:19;97075.19;;;18.45
70435;BMP280;57876;47.792;12.960;2022-10-14T04:11:44;97074.44;;;18.45
70435;BMP280;57876;47.792;12.960;2022-10-14T04:14:08;97081.19;;;18.44
70435;BMP280;57876;47.792;12.960;2022-10-14T04:16:33;97072.44;;;18.45
70435;BMP280;57876;47.792;12.960;2022-10-14T04:18:57;97072.97;;;18.44
70435;BMP280;57876;47.792;12.960;2022-10-14T04:21:22;97079.19;;;18.44
70435;BMP280;57876;47.792;12.960;2022-10-14T04:23:46;97074.44;;;18.45
70435;BMP280;57876;47.792;12.960;2022-10-14T04:26:10;97080.66;;;18.45
70435;BMP280;57876;47.792;12.960;2022-10-14T04:28:35;97075.72;;;18.44
70435;BMP280;57876;47.792;12.960;2022-10-14T04:31:00;97068.25;;;18.44
70435;BMP280;57876;47.792;12.960;2022-10-14T04:33:25;97077.19;;;18.45
70435;BMP280;57876;47.792;12.960;2022-10-14T04:35:49;97071.13;;;18.46
70435;BMP280;57876;47.792;12.960;2022-10-14T04:38:14;97065.06;;;18.48
70435;BMP280;57876;47.792;12.960;2022-10-14T04:40:39;97065.22;;;18.50
70435;BMP280;57876;47.792;12.960;2022-10-14T04:43:03;97051.13;;;18.53
70435;BMP280;57876;47.792;12.960;2022-10-14T04:45:28;97053.47;;;18.57
70435;BMP280;57876;47.792;12.960;2022-10-14T04:47:52;97054.50;;;18.61
70435;BMP280;57876;47.792;12.960;2022-10-14T04:50:17;97060.16;;;18.63
70435;BMP280;57876;47.792;12.960;2022-10-14T04:52:43;97064.63;;;18.68
70435;BMP280;57876;47.792;12.960;2022-10-14T04:55:08;97057.28;;;18.70
70435;BMP280;57876;47.792;12.960;2022-10-14T04:57:32;97057.59;;;18.74
70435;BMP280;57876;47.792;12.960;2022-10-14T04:59:56;97049.38;;;18.74
70435;BMP280;57876;47.792;12.960;2022-10-14T05:02:21;97051.69;;;18.78
70435;BMP280;57876;47.792;12.960;2022-10-14T05:04:45;97053.16;;;18.79
70435;BMP280;57876;47.792;12.960;2022-10-14T05:07:10;97052.00;;;18.82
70435;BMP280;57876;47.792;12.960;2022-10-14T05:09:35;97050.00;;;18.82
70435;BMP280;57876;47.792;12.960;2022-10-14T05:11:59;97053.44;;;18.83
70435;BMP280;57876;47.792;12.960;2022-10-14T05:14:24;97044.69;;;18.84
70435;BMP280;57876;47.792;12.960;2022-10-14T05:16:48;97047.41;;;18.84
70435;BMP280;57876;47.792;12.960;2022-10-14T05:19:12;97039.19;;;18.84
70435;BMP280;57876;47.792;12.960;2022-10-14T05:21:37;97039.19;;;18.84
70435;BMP280;57876;47.792;12.960;2022-10-14T05:24:02;97036.44;;;18.84
70435;BMP280;57876;47.792;12.960;2022-10-14T05:26:26;97035.00;;;18.83
70435;BMP280;57876;47.792;12.960;2022-10-14T05:28:51;97035.72;;;18.84
70435;BMP280;57876;47.792;12.960;2022-10-14T05:31:15;97024.03;;;18.83
70435;BMP280;57876;47.792;12.960;2022-10-14T05:33:40;97034.25;;;18.83
70435;BMP280;57876;47.792;12.960;2022-10-14T05:36:04;97036.28;;;18.82
70435;BMP280;57876;47.792;12.960;2022-10-14T05:38:32;97031.38;;;18.81
70435;BMP280;57876;47.792;12.960;2022-10-14T05:40:57;97038.28;;;18.82
70435;BMP280;57876;47.792;12.960;2022-10-14T05:43:22;97039.59;;;18.81
70435;BMP280;57876;47.792;12.960;2022-10-14T05:45:47;97038.16;;;18.80
70435;BMP280;57876;47.792;12.960;2022-10-14T05:48:12;97043.63;;;18.80
70435;BMP280;57876;47.792;12.960;2022-10-14T05:50:36;97040.75;;;18.78
70435;BMP280;57876;47.792;12.960;2022-10-14T05:53:00;97038.00;;;18.78
70435;BMP280;57876;47.792;12.960;2022-10-14T05:55:25;97039.31;;;18.77
70435;BMP280;57876;47.792;12.960;2022-10-14T05:57:54;97036.56;;;18.77
70435;BMP280;57876;47.792;12.960;2022-10-14T06:00:18;97042.59;;;18.75
70435;BMP280;57876;47.792;12.960;2022-10-14T06:02:43;97039.16;;;18.75
70435;BMP280;57876;47.792;12.960;2022-10-14T06:05:07;97034.22;;;18.73
70435;BMP280;57876;47.792;12.960;2022-10-14T06:07:34;97034.22;;;18.73
70435;BMP280;57876;47.792;12.960;2022-10-14T06:09:58;97033.47;;;18.73
70435;BMP280;57876;47.792;12.960;2022-10-14T06:12:23;97030.72;;;18.73
70435;BMP280;57876;47.792;12.960;2022-10-14T06:14:47;97026.56;;;18.72
70435;BMP280;57876;47.792;12.960;2022-10-14T06:17:11;97020.38;;;18.71
70435;BMP280;57876;47.792;12.960;2022-10-14T06:19:36;97019.63;;;18.71
70435;BMP280;57876;47.792;12.960;2022-10-14T06:22:00;97015.44;;;18.70
70435;BMP280;57876;47.792;12.960;2022-10-14T06:24:26;97018.19;;;18.70
70435;BMP280;57876;47.792;12.960;2022-10-14T06:26:50;97017.47;;;18.69
70435;BMP280;57876;47.792;12.960;2022-10-14T06:29:15;97026.97;;;18.68
70435;BMP280;57876;47.792;12.960;2022-10-14T06:31:40;97024.94;;;18.69
70435;BMP280;57876;47.792;12.960;2022-10-14T06:34:05;97033.78;;;18.67
70435;BMP280;57876;47.792;12.960;2022-10-14T06:36:29;97027.69;;;18.69
70435;BMP280;57876;47.792;12.960;2022-10-14T06:38:53;97032.47;;;18.68
70435;BMP280;57876;47.792;12.960;2022-10-14T06:41:18;97031.75;;;18.68
70435;BMP280;57876;47.792;12.960;2022-10-14T06:43:42;97025.56;;;18.67
70435;BMP280;57876;47.792;12.960;2022-10-14T06:46:06;97023.53;;;18.68
70435;BMP280;57876;47.792;12.960;2022-10-14T06:48:31;97030.31;;;18.67
70435;BMP280;57876;47.792;12.960;2022-10-14T06:51:00;97030.31;;;18.67
70435;BMP280;57876;47.792;12.960;2022-10-14T06:53:25;97033.03;;;18.67
70435;BMP280;57876;47.792;12.960;2022-10-14T06:56:05;97030.31;;;18.67
70435;BMP280;57876;47.792;12.960;2022-10-14T06:58:30;97027.56;;;18.67
70435;BMP280;57876;47.792;12.960;2022-10-14T07:00:54;97038.53;;;18.67
70435;BMP280;57876;47.792;12.960;2022-10-14T07:03:19;97036.53;;;18.67
70435;BMP280;57876;47.792;12.960;2022-10-14T07:05:43;97037.22;;;18.68
70435;BMP280;57876;47.792;12.960;2022-10-14T07:08:08;97043.44;;;18.68
70435;BMP280;57876;47.792;12.960;2022-10-14T07:10:32;97030.44;;;18.69
70435;BMP280;57876;47.792;12.960;2022-10-14T07:12:57;97033.91;;;18.69
70435;BMP280;57876;47.792;12.960;2022-10-14T07:15:21;97028.44;;;18.69
70435;BMP280;57876;47.792;12.960;2022-10-14T07:17:46;97031.88;;;18.70
70435;BMP280;57876;47.792;12.960;2022-10-14T07:20:10;97033.16;;;18.69
70435;BMP280;57876;47.792;12.960;2022-10-14T07:22:35;97030.59;;;18.71
70435;BMP280;57876;47.792;12.960;2022-10-14T07:24:59;97033.91;;;18.69
70435;BMP280;57876;47.792;12.960;2022-10-14T07:27:24;97036.06;;;18.71
70435;BMP280;57876;47.792;12.960;2022-10-14T07:29:48;97033.34;;;18.71
70435;BMP280;57876;47.792;12.960;2022-10-14T07:32:13;97030.06;;;18.72
70435;BMP280;57876;47.792;12.960;2022-10-14T07:34:37;97032.78;;;18.72
70435;BMP280;57876;47.792;12.960;2022-10-14T07:37:02;97028.72;;;18.73
70435;BMP280;57876;47.792;12.960;2022-10-14T07:39:26;97038.94;;;18.73
70435;BMP280;57876;47.792;12.960;2022-10-14T07:41:52;97039.69;;;18.73
70435;BMP280;57876;47.792;12.960;2022-10-14T07:44:16;97033.66;;;18.75
70435;BMP280;57876;47.792;12.960;2022-10-14T07:46:43;97034.22;;;18.73
70435;BMP280;57876;47.792;12.960;2022-10-14T07:49:18;97034.22;;;18.73
70435;BMP280;57876;47.792;12.960;2022-10-14T07:51:44;97030.19;;;18.74
70435;BMP280;57876;47.792;12.960;2022-10-14T07:54:18;97025.44;;;18.75
70435;BMP280;57876;47.792;12.960;2022-10-14T07:56:44;97027.44;;;18.74
70435;BMP280;57876;47.792;12.960;2022-10-14T07:59:09;97025.44;;;18.75
70435;BMP280;57876;47.792;12.960;2022-10-14T08:01:33;97019.22;;;18.74
70435;BMP280;57876;47.792;12.960;2022-10-14T08:03:58;97021.97;;;18.74
70435;BMP280;57876;47.792;12.960;2022-10-14T08:06:22;97017.94;;;18.75
70435;BMP280;57876;47.792;12.960;2022-10-14T08:08:47;97002.78;;;18.74
70435;BMP280;57876;47.792;12.960;2022-10-14T08:11:17;97015.19;;;18.75
70435;BMP280;57876;47.792;12.960;2022-10-14T08:13:42;97002.06;;;18.74
70435;BMP280;57876;47.792;12.960;2022-10-14T08:16:24;97006.81;;;18.73
70435;BMP280;57876;47.792;12.960;2022-10-14T08:18:49;97000.03;;;18.74
70435;BMP280;57876;47.792;12.960;2022-10-14T08:21:14;96997.28;;;18.74
70435;BMP280;57876;47.792;12.960;2022-10-14T08:23:39;96998.03;;;18.75
70435;BMP280;57876;47.792;12.960;2022-10-14T08:31:46;96991.09;;;18.74
70435;BMP280;57876;47.792;12.960;2022-10-14T08:34:10;96991.81;;;18.74
70435;BMP280;57876;47.792;12.960;2022-10-14T09:04:03;96978.84;;;18.75
70435;BMP280;57876;47.792;12.960;2022-10-14T09:06:30;96980.84;;;18.74
70435;BMP280;57876;47.792;12.960;2022-10-14T09:11:59;96979.00;;;18.77
70435;BMP280;57876;47.792;12.960;2022-10-14T09:14:28;96975.53;;;18.76
70435;BMP280;57876;47.792;12.960;2022-10-14T09:17:01;96976.94;;;18.77
70435;BMP280;57876;47.792;12.960;2022-10-14T12:11:56;96800.81;;;18.86
70435;BMP280;57876;47.792;12.960;2022-10-14T12:17:56;96795.34;;;18.86
70435;BMP280;57876;47.792;12.960;2022-10-14T12:23:01;96793.91;;;18.85
70435;BMP280;57876;47.792;12.960;2022-10-14T12:25:34;96789.16;;;18.86
70435;BMP280;57876;47.792;12.960;2022-10-14T12:28:01;96786.72;;;18.90
70435;BMP280;57876;47.792;12.960;2022-10-14T12:30:39;96779.06;;;18.88
70435;BMP280;57876;47.792;12.960;2022-10-14T12:33:06;96776.31;;;18.88
70435;BMP280;57876;47.792;12.960;2022-10-14T12:35:54;96775.56;;;18.88
70435;BMP280;57876;47.792;12.960;2022-10-14T12:38:22;96769.38;;;18.87
70435;BMP280;57876;47.792;12.960;2022-10-14T12:40:47;96767.94;;;18.86
70435;BMP280;57876;47.792;12.960;2022-10-14T12:43:15;96770.81;;;18.88
70435;BMP280;57876;47.792;12.960;2022-10-14T12:45:59;96769.81;;;18.93
70435;BMP280;57876;47.792;12.960;2022-10-14T12:48:26;96757.97;;;19.00
70435;BMP280;57876;47.792;12.960;2022-10-14T12:51:09;96759.56;;;19.03
70435;BMP280;57876;47.792;12.960;2022-10-14T12:53:36;96752.50;;;19.00
70435;BMP280;57876;47.792;12.960;2022-10-14T12:56:02;96747.59;;;18.99
70435;BMP280;57876;47.792;12.960;2022-10-14T12:58:34;96746.75;;;18.96
70435;BMP280;57876;47.792;12.960;2022-10-14T13:01:02;96742.50;;;18.95
70435;BMP280;57876;47.792;12.960;2022-10-14T13:03:35;96738.34;;;18.94
70435;BMP280;57876;47.792;12.960;2022-10-14T13:06:37;96736.91;;;19.03
70435;BMP280;57876;47.792;12.960;2022-10-14T13:11:36;96735.03;;;19.05
70435;BMP280;57876;47.792;12.960;2022-10-14T13:14:01;96728.53;;;19.01
70435;BMP280;57876;47.792;12.960;2022-10-14T13:19:00;96717.28;;;18.97
70435;BMP280;57876;47.792;12.960;2022-10-14T13:24:00;96719.16;;;18.94
70435;BMP280;57876;47.792;12.960;2022-10-14T13:26:27;96715.56;;;18.92
70435;BMP280;57876;47.792;12.960;2022-10-14T13:31:46;96709.34;;;18.91
70435;BMP280;57876;47.792;12.960;2022-10-14T13:37:00;96695.50;;;18.89
70435;BMP280;57876;47.792;12.960;2022-10-14T13:39:25;96697.53;;;18.89
70435;BMP280;57876;47.792;12.960;2022-10-14T13:41:50;96693.34;;;18.88
70435;BMP280;57876;47.792;12.960;2022-10-14T13:44:17;96699.53;;;18.88
70435;BMP280;57876;47.792;12.960;2022-10-14T13:46:46;96704.28;;;18.88
70435;BMP280;57876;47.792;12.960;2022-10-14T13:49:14;96700.84;;;18.87
70435;BMP280;57876;47.792;12.960;2022-10-14T13:54:24;96685.69;;;18.86
70435;BMP280;57876;47.792;12.960;2022-10-14T13:57:11;96686.41;;;18.87
70435;BMP280;57876;47.792;12.960;2022-10-14T13:59:39;96674.00;;;18.86
70435;BMP280;57876;47.792;12.960;2022-10-14T14:02:11;96676.06;;;18.85
70435;BMP280;57876;47.792;12.960;2022-10-14T14:04:37;96669.84;;;18.85
70435;BMP280;57876;47.792;12.960;2022-10-14T14:07:03;96670.56;;;18.85
70435;BMP280;57876;47.792;12.960;2022-10-14T14:09:29;96665.78;;;18.86
70435;BMP280;57876;47.792;12.960;2022-10-14T14:11:59;96673.31;;;18.85
70435;BMP280;57876;47.792;12.960;2022-10-14T14:14:42;96674.72;;;18.86
70435;BMP280;57876;47.792;12.960;2022-10-14T14:17:23;96677.47;;;18.86
70435;BMP280;57876;47.792;12.960;2022-10-14T14:19:49;96689.75;;;18.85
70435;BMP280;57876;47.792;12.960;2022-10-14T14:22:21;96682.25;;;18.86
70435;BMP280;57876;47.792;12.960;2022-10-14T14:27:44;96682.25;;;18.86
70435;BMP280;57876;47.792;12.960;2022-10-14T14:30:37;96677.47;;;18.86
70435;BMP280;57876;47.792;12.960;2022-10-14T14:33:28;96676.75;;;18.86
70435;BMP280;57876;47.792;12.960;2022-10-14T14:36:04;96676.75;;;18.86
70435;BMP280;57876;47.792;12.960;2022-10-14T14:38:35;96668.53;;;18.86
70435;BMP280;57876;47.792;12.960;2022-10-14T14:41:21;96661.59;;;18.85
70435;BMP280;57876;47.792;12.960;2022-10-14T14:43:46;96662.34;;;18.85
70435;BMP280;57876;47.792;12.960;2022-10-14T14:46:19;96655.53;;;18.86
70435;BMP280;57876;47.792;12.960;2022-10-14T14:48:46;96663.06;;;18.86
70435;BMP280;57876;47.792;12.960;2022-10-14T14:51:14;96662.34;;;18.85
70435;BMP280;57876;47.792;12.960;2022-10-14T14:53:39;96662.34;;;18.85
70435;BMP280;57876;47.792;12.960;2022-10-14T14:56:12;96667.81;;;18.85
70435;BMP280;57876;47.792;12.960;2022-10-14T15:01:06;96655.53;;;18.86
70435;BMP280;57876;47.792;12.960;2022-10-14T15:03:32;96663.06;;;18.86
70435;BMP280;57876;47.792;12.960;2022-10-14T15:06:00;96674.00;;;18.86
70435;BMP280;57876;47.792;12.960;2022-10-14T15:08:28;96674.72;;;18.86
70435;BMP280;57876;47.792;12.960;2022-10-14T15:10:55;96674.72;;;18.86
70435;BMP280;57876;47.792;12.960;2022-10-14T15:15:52;96678.78;;;18.85
70435;BMP280;57876;47.792;12.960;2022-10-14T15:18:22;96666.50;;;18.86
70435;BMP280;57876;47.792;12.960;2022-10-14T15:20:47;96677.47;;;18.86
70435;BMP280;57876;47.792;12.960;2022-10-14T15:26:01;96682.25;;;18.86
70435;BMP280;57876;47.792;12.960;2022-10-14T15:28:30;96684.97;;;18.86
70435;BMP280;57876;47.792;12.960;2022-10-14T15:30:54;96689.03;;;18.85
70435;BMP280;57876;47.792;12.960;2022-10-14T15:33:22;96695.94;;;18.86
70435;BMP280;57876;47.792;12.960;2022-10-14T15:35:57;96691.06;;;18.84
70435;BMP280;57876;47.792;12.960;2022-10-14T15:38:22;96697.97;;;18.85
70435;BMP280;57876;47.792;12.960;2022-10-14T15:40:47;96702.72;;;18.85
70435;BMP280;57876;47.792;12.960;2022-10-14T15:43:17;96699.28;;;18.84
70435;BMP280;57876;47.792;12.960;2022-10-14T15:45:43;96699.28;;;18.84
70435;BMP280;57876;47.792;12.960;2022-10-14T15:48:16;96706.75;;;18.84
70435;BMP280;57876;47.792;12.960;2022-10-14T15:50:43;96718.47;;;18.84
70435;BMP280;57876;47.792;12.960;2022-10-14T15:53:08;96714.28;;;18.83
70435;BMP280;57876;47.792;12.960;2022-10-14T15:55:33;96721.22;;;18.84
70435;BMP280;57876;47.792;12.960;2022-10-14T15:57:58;96717.72;;;18.84
70435;BMP280;57876;47.792;12.960;2022-10-14T16:00:23;96722.50;;;18.83
70435;BMP280;57876;47.792;12.960;2022-10-14T16:02:57;96714.28;;;18.83
70435;BMP280;57876;47.792;12.960;2022-10-14T16:05:21;96711.53;;;18.83
70435;BMP280;57876;47.792;12.960;2022-10-14T16:07:46;96718.47;;;18.84
70435;BMP280;57876;47.792;12.960;2022-10-14T16:10:14;96717.16;;;18.85
70435;BMP280;57876;47.792;12.960;2022-10-14T16:12:38;96717.16;;;18.85
70435;BMP280;57876;47.792;12.960;2022-10-14T16:17:37;96720.63;;;18.86
70435;BMP280;57876;47.792;12.960;2022-10-14T16:20:02;96710.94;;;18.85
70435;BMP280;57876;47.792;12.960;2022-10-14T16:22:26;96704.03;;;18.84
70435;BMP280;57876;47.792;12.960;2022-10-14T16:24:51;96703.47;;;18.85
70435;BMP280;57876;47.792;12.960;2022-10-14T16:27:15;96698.53;;;18.84
70435;BMP280;57876;47.792;12.960;2022-10-14T16:29:39;96699.97;;;18.85
70435;BMP280;57876;47.792;12.960;2022-10-14T16:32:04;96698.53;;;18.84
70435;BMP280;57876;47.792;12.960;2022-10-14T16:34:28;96703.47;;;18.85
70435;BMP280;57876;47.792;12.960;2022-10-14T16:36:52;96702.00;;;18.84
70435;BMP280;57876;47.792;12.960;2022-10-14T16:39:18;96696.53;;;18.84
70435;BMP280;57876;47.792;12.960;2022-10-14T16:41:42;96706.19;;;18.85
70435;BMP280;57876;47.792;12.960;2022-10-14T16:44:07;96712.97;;;18.84
70435;BMP280;57876;47.792;12.960;2022-10-14T16:46:31;96712.97;;;18.84
70435;BMP280;57876;47.792;12.960;2022-10-14T16:49:15;96712.25;;;18.84
70435;BMP280;57876;47.792;12.960;2022-10-14T16:51:43;96709.50;;;18.84
70435;BMP280;57876;47.792;12.960;2022-10-14T16:54:09;96707.50;;;18.84
70435;BMP280;57876;47.792;12.960;2022-10-14T16:56:33;96701.28;;;18.84
70435;BMP280;57876;47.792;12.960;2022-10-14T16:59:16;96704.75;;;18.84
70435;BMP280;57876;47.792;12.960;2022-10-14T17:01:40;96706.75;;;18.84
70435;BMP280;57876;47.792;12.960;2022-10-14T17:04:05;96707.50;;;18.84
70435;BMP280;57876;47.792;12.960;2022-10-14T17:06:29;96704.75;;;18.84
70435;BMP280;57876;47.792;12.960;2022-10-14T17:08:53;96706.75;;;18.84
70435;BMP280;57876;47.792;12.960;2022-10-14T17:11:18;96699.28;;;18.84
70435;BMP280;57876;47.792;12.960;2022-10-14T17:13:43;96704.59;;;18.82
70435;BMP280;57876;47.792;12.960;2022-10-14T17:16:07;96708.06;;;18.83
70435;BMP280;57876;47.792;12.960;2022-10-14T17:18:32;96710.78;;;18.83
70435;BMP280;57876;47.792;12.960;2022-10-14T17:21:05;96704.03;;;18.84
70435;BMP280;57876;47.792;12.960;2022-10-14T17:23:35;96706.06;;;18.83
70435;BMP280;57876;47.792;12.960;2022-10-14T17:26:03;96706.06;;;18.83
70435;BMP280;57876;47.792;12.960;2022-10-14T17:28:28;96715.72;;;18.84
70435;BMP280;57876;47.792;12.960;2022-10-14T17:30:53;96706.06;;;18.83
70435;BMP280;57876;47.792;12.960;2022-10-14T17:33:17;96707.50;;;18.84
70435;BMP280;57876;47.792;12.960;2022-10-14T17:35:42;96707.34;;;18.82
70435;BMP280;57876;47.792;12.960;2022-10-14T17:38:07;96707.50;;;18.84
70435;BMP280;57876;47.792;12.960;2022-10-14T17:40:31;96717.72;;;18.84
70435;BMP280;57876;47.792;12.960;2022-10-14T17:42:56;96711.53;;;18.83
70435;BMP280;57876;47.792;12.960;2022-10-14T17:45:21;96707.50;;;18.84
70435;BMP280;57876;47.792;12.960;2022-10-14T17:47:45;96711.53;;;18.83
70435;BMP280;57876;47.792;12.960;2022-10-14T17:50:10;96713.53;;;18.83
70435;BMP280;57876;47.792;12.960;2022-10-14T17:52:34;96719.03;;;18.83
70435;BMP280;57876;47.792;12.960;2022-10-14T17:54:59;96708.78;;;18.83
70435;BMP280;57876;47.792;12.960;2022-10-14T17:57:23;96719.03;;;18.83
70435;BMP280;57876;47.792;12.960;2022-10-14T17:59:47;96706.06;;;18.83
70435;BMP280;57876;47.792;12.960;2022-10-14T18:02:16;96707.34;;;18.82
70435;BMP280;57876;47.792;12.960;2022-10-14T18:04:40;96709.50;;;18.84
70435;BMP280;57876;47.792;12.960;2022-10-14T18:07:05;96717.72;;;18.84
70435;BMP280;57876;47.792;12.960;2022-10-14T18:09:29;96707.50;;;18.84
70435;BMP280;57876;47.792;12.960;2022-10-14T18:11:54;96704.75;;;18.84
70435;BMP280;57876;47.792;12.960;2022-10-14T18:14:18;96710.25;;;18.84
70435;BMP280;57876;47.792;12.960;2022-10-14T18:16:42;96722.66;;;18.85
70435;BMP280;57876;47.792;12.960;2022-10-14T18:19:10;96715.72;;;18.84